Time;durP1;ratioP1;P1;durP2;ratioP2;P2;SDS_P1;SDS_P2;PMS_P1;PMS_P2;Temp;Humidity;BMP_temperature;BMP_pressure;BME280_temperature;BME280_humidity;BME280_pressure;Samples;Min_cycle;Max_cycle;Signal;HPM_P1;HPM_P2
2023/02/21 02:14:54;;;;;;;46.13;23.60;;;8.20;99.90;;;;;;5011002;28;20038;-58
2023/02/21 02:17:38;;;;;;;45.00;24.10;;;8.10;99.90;;;;;;5012177;28;20030;-58
2023/02/21 02:20:38;;;;;;;47.37;24.83;;;8.10;99.90;;;;;;5010908;28;20042;-59
2023/02/21 02:23:22;;;;;;;46.70;25.57;;;8.10;99.90;;;;;;5010805;28;20452;-58
2023/02/21 02:26:19;;;;;;;51.80;26.67;;;8.10;99.90;;;;;;5011974;28;20034;-57
2023/02/21 02:29:23;;;;;;;51.23;25.93;;;8.00;99.90;;;;;;5011661;28;20053;-57
2023/02/21 02:31:59;;;;;;;51.57;25.40;;;8.00;99.90;;;;;;4989587;28;20038;-56
2023/02/21 02:34:26;;;;;;;52.53;25.70;;;8.00;99.90;;;;;;5010446;28;20096;-57
2023/02/21 02:37:09;;;;;;;48.60;25.07;;;8.10;99.90;;;;;;5011567;28;20061;-57
2023/02/21 02:39:48;;;;;;;44.87;24.30;;;8.00;99.90;;;;;;5010323;28;20478;-58
2023/02/21 02:42:20;;;;;;;52.53;27.50;;;8.00;99.90;;;;;;5010347;28;20034;-58
2023/02/21 02:44:52;;;;;;;54.07;27.77;;;8.00;99.90;;;;;;5010243;28;20030;-59
2023/02/21 02:47:27;;;;;;;56.73;27.67;;;7.90;99.90;;;;;;5010119;28;20034;-59
2023/02/21 02:49:56;;;;;;;52.77;27.17;;;7.90;99.90;;;;;;5011549;28;20037;-59
2023/02/21 02:52:21;;;;;;;53.70;27.47;;;7.90;99.90;;;;;;5011392;28;20398;-59
2023/02/21 02:55:01;;;;;;;48.40;26.97;;;8.00;99.90;;;;;;4993725;28;20048;-58
2023/02/21 02:57:39;;;;;;;48.83;26.73;;;7.90;99.90;;;;;;4993680;28;20439;-59
2023/02/21 03:00:07;;;;;;;54.03;28.90;;;8.00;99.90;;;;;;5010111;28;20038;-59
2023/02/21 03:02:48;;;;;;;50.13;25.97;;;8.00;99.90;;;;;;4993754;28;20044;-59
2023/02/21 03:05:31;;;;;;;50.23;25.57;;;7.90;99.90;;;;;;5011151;28;20095;-59
2023/02/21 03:08:16;;;;;;;48.17;25.87;;;8.00;99.90;;;;;;5011110;28;20040;-58
2023/02/21 03:10:55;;;;;;;48.70;25.23;;;8.00;99.90;;;;;;4993617;28;20108;-58
2023/02/21 03:13:36;;;;;;;51.80;27.47;;;7.90;99.90;;;;;;4993199;28;20125;-58
2023/02/21 03:16:14;;;;;;;52.33;27.37;;;7.90;99.90;;;;;;5009098;28;20116;-58
2023/02/21 03:18:51;;;;;;;53.83;27.77;;;8.00;99.90;;;;;;5009543;28;20026;-58
2023/02/21 03:21:27;;;;;;;53.20;29.13;;;7.90;99.90;;;;;;5009864;28;20026;-58
2023/02/21 03:23:57;;;;;;;53.83;28.60;;;7.90;99.90;;;;;;5009502;28;20030;-59
2023/02/21 03:26:26;;;;;;;55.60;29.60;;;7.90;99.90;;;;;;5009532;28;20030;-58
2023/02/21 03:28:56;;;;;;;54.00;27.73;;;7.90;99.90;;;;;;5009569;28;20406;-58
2023/02/21 03:31:28;;;;;;;56.63;29.10;;;7.90;99.90;;;;;;4993195;28;20466;-58
2023/02/21 03:33:54;;;;;;;56.97;29.20;;;7.90;99.90;;;;;;5010503;28;20030;-58
2023/02/21 03:36:21;;;;;;;58.80;29.17;;;7.90;99.90;;;;;;5009428;28;20594;-58
2023/02/21 03:38:47;;;;;;;52.27;28.73;;;7.90;99.90;;;;;;5009368;28;20053;-58
2023/02/21 03:41:14;;;;;;;54.70;28.27;;;7.90;99.90;;;;;;5009424;28;20057;-58
2023/02/21 03:43:41;;;;;;;55.53;28.77;;;7.90;99.90;;;;;;4992706;28;20441;-58
2023/02/21 03:46:06;;;;;;;53.73;28.73;;;7.90;99.90;;;;;;5009476;28;20029;-58
2023/02/21 03:48:33;;;;;;;51.67;27.77;;;7.90;99.90;;;;;;5009185;28;20049;-58
2023/02/21 03:51:08;;;;;;;55.33;29.63;;;7.90;99.90;;;;;;5009402;28;20030;-58
2023/02/21 03:53:35;;;;;;;52.13;27.63;;;7.90;99.90;;;;;;5009132;28;20022;-58
2023/02/21 03:56:02;;;;;;;53.53;29.27;;;7.90;99.90;;;;;;5009252;28;20507;-58
2023/02/21 03:58:40;;;;;;;57.87;28.83;;;7.90;99.90;;;;;;4992756;28;20076;-58
2023/02/21 04:01:06;;;;;;;59.33;30.20;;;7.80;99.90;;;;;;5010720;28;20026;-58
2023/02/21 04:03:32;;;;;;;57.30;29.57;;;7.80;99.90;;;;;;5009138;28;20364;-58
2023/02/21 04:06:02;;;;;;;57.67;29.77;;;7.80;99.90;;;;;;5009195;28;20022;-58
2023/02/21 04:08:29;;;;;;;60.03;30.30;;;7.80;99.90;;;;;;5008995;28;20060;-58
2023/02/21 04:10:55;;;;;;;59.97;29.27;;;7.80;99.90;;;;;;5009180;28;20034;-58
2023/02/21 04:13:24;;;;;;;;;;;7.90;99.90;;;;;;5010690;28;20029;-58
2023/02/21 04:15:51;;;;;;;59.27;27.87;;;7.80;99.90;;;;;;5009173;28;20408;-58
2023/02/21 04:18:17;;;;;;;59.00;29.23;;;7.80;99.90;;;;;;5008924;28;20034;-58
2023/02/21 04:20:46;;;;;;;61.27;30.47;;;7.80;99.90;;;;;;5010304;28;20033;-58
2023/02/21 04:23:19;;;;;;;57.33;29.07;;;7.80;99.90;;;;;;5008981;28;20037;-59
2023/02/21 04:25:45;;;;;;;58.17;29.83;;;7.90;99.90;;;;;;5009082;28;20045;-59
2023/02/21 04:28:15;;;;;;;60.37;29.57;;;7.80;99.90;;;;;;5012648;28;20058;-59
2023/02/21 04:30:41;;;;;;;65.17;30.30;;;7.70;99.90;;;;;;5012739;28;20060;-58
2023/02/21 04:33:07;;;;;;;62.87;31.10;;;7.80;99.90;;;;;;5014071;28;20026;-58
2023/02/21 04:35:33;;;;;;;61.93;28.70;;;7.80;99.90;;;;;;5012558;28;20101;-59
2023/02/21 04:38:04;;;;;;;58.77;28.60;;;7.70;99.90;;;;;;5012555;28;20088;-58
2023/02/21 04:40:30;;;;;;;64.20;30.13;;;7.70;99.90;;;;;;5012638;28;20041;-58
2023/02/21 04:42:55;;;;;;;64.07;30.30;;;7.70;99.90;;;;;;5012433;28;20029;-58
2023/02/21 04:45:21;;;;;;;61.77;30.23;;;7.70;99.90;;;;;;5012406;28;20030;-59
2023/02/21 04:47:47;;;;;;;59.73;28.63;;;7.70;99.90;;;;;;5012333;28;20041;-59
2023/02/21 04:50:13;;;;;;;58.53;29.50;;;7.70;99.90;;;;;;5013646;28;20399;-58
2023/02/21 04:52:39;;;;;;;67.57;29.97;;;7.70;99.90;;;;;;5013589;28;20030;-59
2023/02/21 04:55:07;;;;;;;65.17;30.00;;;7.60;99.90;;;;;;5013750;28;20034;-58
2023/02/21 04:57:32;;;;;;;65.37;29.90;;;7.70;99.90;;;;;;5013492;28;20458;-59
2023/02/21 04:59:59;;;;;;;65.27;29.53;;;7.70;99.90;;;;;;5013498;28;20353;-58
2023/02/21 05:02:26;;;;;;;61.23;29.20;;;7.70;99.90;;;;;;5013505;28;20045;-58
2023/02/21 05:04:52;;;;;;;62.13;31.40;;;7.70;99.90;;;;;;5013269;28;20030;-59
2023/02/21 05:07:17;;;;;;;61.57;29.47;;;7.70;99.90;;;;;;5013312;28;20044;-59
2023/02/21 05:09:43;;;;;;;63.17;30.07;;;7.70;99.90;;;;;;5013191;28;20033;-58
2023/02/21 05:12:10;;;;;;;65.63;29.40;;;7.70;99.90;;;;;;5013267;28;20022;-58
2023/02/21 05:14:38;;;;;;;66.70;32.37;;;7.70;99.90;;;;;;5013332;28;20030;-57
2023/02/21 05:17:04;;;;;;;62.27;30.80;;;7.70;99.90;;;;;;5013492;28;20040;-57
2023/02/21 05:19:30;;;;;;;66.67;31.07;;;7.70;99.90;;;;;;5013089;28;20038;-57
2023/02/21 05:21:58;;;;;;;70.30;32.37;;;7.70;99.90;;;;;;5013261;28;20041;-58
2023/02/21 05:24:26;;;;;;;69.77;32.30;;;7.70;99.90;;;;;;5012992;28;20529;-57
2023/02/21 05:26:52;;;;;;;65.37;31.07;;;7.60;99.90;;;;;;5012966;28;20040;-57
2023/02/21 05:29:18;;;;;;;78.40;34.07;;;7.70;99.90;;;;;;5012974;28;20032;-57
2023/02/21 05:31:44;;;;;;;81.00;34.20;;;7.70;99.90;;;;;;5013108;28;20050;-58
2023/02/21 05:34:10;;;;;;;77.70;34.70;;;7.70;99.90;;;;;;5012748;28;20030;-58
2023/02/21 05:36:36;;;;;;;79.97;35.97;;;7.70;99.90;;;;;;5012758;28;20028;-58
2023/02/21 05:39:03;;;;;;;80.90;34.37;;;7.60;99.90;;;;;;5011782;28;20033;-58
2023/02/21 05:41:29;;;;;;;76.23;35.83;;;7.70;99.90;;;;;;5012889;28;20034;-58
2023/02/21 05:43:55;;;;;;;80.20;33.80;;;7.70;99.90;;;;;;5012587;28;20040;-58
2023/02/21 05:46:31;;;;;;;87.60;36.30;;;7.70;99.90;;;;;;5012979;28;20092;-58
2023/02/21 05:48:59;;;;;;;87.67;35.43;;;7.70;99.90;;;;;;5012550;28;20080;-58
2023/02/21 05:51:26;;;;;;;83.53;36.10;;;7.60;99.90;;;;;;5012617;28;20034;-58
2023/02/21 05:53:52;;;;;;;84.43;35.57;;;7.60;99.90;;;;;;5012298;28;20026;-58
2023/02/21 05:56:19;;;;;;;89.77;35.53;;;7.60;99.90;;;;;;5012364;28;20475;-58
2023/02/21 05:58:45;;;;;;;81.67;35.60;;;7.60;99.90;;;;;;5012399;28;20030;-58
2023/02/21 06:01:10;;;;;;;89.50;36.50;;;7.60;99.90;;;;;;5012423;28;20113;-58
2023/02/21 06:03:36;;;;;;;87.70;34.60;;;7.60;99.90;;;;;;5012448;28;20041;-58
2023/02/21 06:06:02;;;;;;;89.40;35.90;;;7.50;99.90;;;;;;5012321;28;20041;-58
2023/02/21 06:08:28;;;;;;;82.73;33.17;;;7.50;99.90;;;;;;5012245;28;20057;-58
2023/02/21 06:10:54;;;;;;;82.93;33.07;;;7.60;99.90;;;;;;5012311;28;20049;-58
2023/02/21 06:13:20;;;;;;;72.17;31.87;;;7.60;99.90;;;;;;5011865;28;20118;-58
2023/02/21 06:15:46;;;;;;;77.23;31.47;;;7.60;99.90;;;;;;5012140;28;20065;-58
2023/02/21 06:18:13;;;;;;;79.97;31.37;;;7.60;99.90;;;;;;5011993;28;20028;-59
2023/02/21 06:20:39;;;;;;;73.73;30.93;;;7.60;99.90;;;;;;5011960;28;20033;-58
2023/02/21 06:23:05;;;;;;;77.60;30.83;;;7.60;99.90;;;;;;5012027;28;20033;-58
2023/02/21 06:25:30;;;;;;;76.73;32.53;;;7.60;99.90;;;;;;5011886;28;20051;-58
2023/02/21 06:27:56;;;;;;;74.17;29.27;;;7.60;99.90;;;;;;5011698;28;20029;-57
2023/02/21 06:30:22;;;;;;;75.77;29.87;;;7.50;99.90;;;;;;5011728;28;20542;-57
2023/02/21 06:32:47;;;;;;;80.50;31.10;;;7.50;99.90;;;;;;5012014;28;20033;-58
2023/02/21 06:35:13;;;;;;;78.93;30.97;;;7.50;99.90;;;;;;5011579;28;20437;-57
2023/02/21 06:37:39;;;;;;;76.40;30.97;;;7.50;99.90;;;;;;5011528;28;20022;-58
2023/02/21 06:40:04;;;;;;;78.23;31.43;;;7.50;99.90;;;;;;5011632;28;20033;-57
2023/02/21 06:42:30;;;;;;;80.10;33.47;;;7.50;99.90;;;;;;5011738;28;20105;-58
2023/02/21 06:44:56;;;;;;;80.50;30.87;;;7.50;99.90;;;;;;5011378;28;20041;-58
2023/02/21 06:47:22;;;;;;;81.30;31.93;;;7.50;99.90;;;;;;5011458;28;20113;-57
2023/02/21 06:49:47;;;;;;;73.33;30.60;;;7.50;99.90;;;;;;5011132;28;20037;-57
2023/02/21 06:52:13;;;;;;;82.23;32.60;;;7.50;99.90;;;;;;5011458;28;20489;-57
2023/02/21 06:54:39;;;;;;;84.57;31.90;;;7.50;99.90;;;;;;5011257;28;20034;-57
2023/02/21 06:57:05;;;;;;;75.77;29.83;;;7.50;99.90;;;;;;5011303;28;20030;-57
2023/02/21 06:59:31;;;;;;;82.63;32.13;;;7.50;99.90;;;;;;5011323;28;20034;-57
2023/02/21 07:01:56;;;;;;;79.53;31.40;;;7.50;99.90;;;;;;5011518;28;20025;-57
2023/02/21 07:04:23;;;;;;;78.90;31.30;;;7.50;99.90;;;;;;5011304;28;20077;-58
2023/02/21 07:06:49;;;;;;;80.33;28.97;;;7.50;99.90;;;;;;5011280;28;20475;-57
2023/02/21 07:09:15;;;;;;;79.10;30.70;;;7.50;99.90;;;;;;5011156;28;20109;-58
2023/02/21 07:11:40;;;;;;;82.20;30.63;;;7.50;99.90;;;;;;5011542;28;20029;-57
2023/02/21 07:14:06;;;;;;;76.53;31.00;;;7.50;99.90;;;;;;5010737;28;20110;-58
2023/02/21 07:16:32;;;;;;;77.73;28.97;;;7.40;99.90;;;;;;5011023;28;20030;-57
2023/02/21 07:18:58;;;;;;;74.27;29.93;;;7.40;99.90;;;;;;5011082;28;20026;-57
2023/02/21 07:21:25;;;;;;;73.00;27.03;;;7.40;99.90;;;;;;5011033;28;20036;-57
2023/02/21 07:23:51;;;;;;;70.13;26.87;;;7.40;99.90;;;;;;5010665;28;20018;-57
2023/02/21 07:26:17;;;;;;;77.40;27.67;;;7.40;99.90;;;;;;5010906;28;20032;-59
2023/02/21 07:28:42;;;;;;;72.93;27.37;;;7.40;99.90;;;;;;5010736;28;20034;-57
2023/02/21 07:31:09;;;;;;;70.50;26.53;;;7.40;99.90;;;;;;5011136;28;20026;-59
2023/02/21 07:33:35;;;;;;;68.27;25.97;;;7.40;99.90;;;;;;5010669;28;20030;-58
2023/02/21 07:36:01;;;;;;;77.97;28.97;;;7.40;99.90;;;;;;5010961;28;20076;-58
2023/02/21 07:38:28;;;;;;;83.17;29.30;;;7.40;99.90;;;;;;5010539;28;20034;-58
2023/02/21 07:40:55;;;;;;;82.67;28.70;;;7.40;99.90;;;;;;5010742;28;20034;-58
2023/02/21 07:43:21;;;;;;;80.67;30.07;;;7.40;99.90;;;;;;5010524;28;20548;-57
2023/02/21 07:45:47;;;;;;;73.80;27.30;;;7.30;99.90;;;;;;5010525;28;20033;-57
2023/02/21 07:48:13;;;;;;;72.67;27.13;;;7.30;99.90;;;;;;5010450;28;20034;-57
2023/02/21 07:50:43;;;;;;;67.40;26.13;;;7.30;99.90;;;;;;5010365;28;20037;-59
2023/02/21 07:53:10;;;;;;;67.30;25.33;;;7.30;99.90;;;;;;5010431;28;20037;-57
2023/02/21 07:55:35;;;;;;;76.07;26.67;;;7.30;99.90;;;;;;5010261;28;20040;-57
2023/02/21 07:58:02;;;;;;;68.73;26.07;;;7.30;99.90;;;;;;5010248;28;20394;-57
2023/02/21 08:00:28;;;;;;;79.50;27.40;;;7.30;99.90;;;;;;5010342;28;20034;-57
2023/02/21 08:02:53;;;;;;;79.73;28.67;;;7.30;99.90;;;;;;5013883;28;20041;-59
2023/02/21 08:05:19;;;;;;;86.87;28.20;;;7.30;99.90;;;;;;5014238;28;20036;-57
2023/02/21 08:07:46;;;;;;;76.57;28.40;;;7.30;99.90;;;;;;5014231;28;20096;-57
2023/02/21 08:10:13;;;;;;;71.97;26.97;;;7.20;99.90;;;;;;5014242;28;20042;-57
2023/02/21 08:12:39;;;;;;;73.30;25.27;;;7.30;99.90;;;;;;5014112;28;20038;-57
2023/02/21 08:15:05;;;;;;;76.57;26.57;;;7.30;99.90;;;;;;5014170;28;20088;-57
2023/02/21 08:17:31;;;;;;;73.97;26.37;;;7.30;99.90;;;;;;5014180;28;20395;-57
2023/02/21 08:19:57;;;;;;;67.30;24.83;;;7.30;99.90;;;;;;5013998;28;20041;-57
2023/02/21 08:22:22;;;;;;;64.47;23.70;;;7.30;99.90;;;;;;5014099;28;20474;-57
2023/02/21 08:24:50;;;;;;;59.77;21.70;;;7.30;99.90;;;;;;5013924;28;20030;-57
2023/02/21 08:27:17;;;;;;;61.20;22.17;;;7.30;99.90;;;;;;5014260;28;20037;-57
2023/02/21 08:29:43;;;;;;;59.87;24.40;;;7.30;99.90;;;;;;5014216;28;20341;-57
2023/02/21 08:32:09;;;;;;;69.87;27.73;;;7.40;99.90;;;;;;5013879;28;20083;-58
2023/02/21 08:34:35;;;;;;;75.63;28.53;;;7.30;99.90;;;;;;5013734;28;20032;-57
2023/02/21 08:37:05;;;;;;;62.80;26.10;;;7.30;99.90;;;;;;5013786;28;20022;-58
2023/02/21 08:39:31;;;;;;;67.43;26.60;;;7.40;99.90;;;;;;5013832;28;20056;-58
2023/02/21 08:41:57;;;;;;;69.57;28.00;;;7.40;99.90;;;;;;5013676;28;20033;-58
2023/02/21 08:44:22;;;;;;;62.63;25.17;;;7.40;99.90;;;;;;5013589;28;20041;-58
2023/02/21 08:46:48;;;;;;;58.13;24.37;;;7.40;99.90;;;;;;5013674;28;20041;-58
2023/02/21 08:49:14;;;;;;;51.23;23.27;;;7.50;99.90;;;;;;5013612;28;20486;-58
2023/02/21 08:51:41;;;;;;;43.20;19.83;;;7.50;99.90;;;;;;5013761;28;20068;-58
2023/02/21 08:54:07;;;;;;;43.30;18.90;;;7.50;99.90;;;;;;5013918;28;20081;-58
2023/02/21 08:56:33;;;;;;;40.60;18.53;;;7.60;99.90;;;;;;5013665;28;20487;-58
2023/02/21 08:58:59;;;;;;;45.03;19.80;;;7.50;99.90;;;;;;5013591;28;20080;-58
2023/02/21 09:01:31;;;;;;;47.60;19.63;;;7.50;99.90;;;;;;5013951;28;20030;-58
2023/02/21 09:03:56;;;;;;;51.87;22.13;;;7.50;99.90;;;;;;5013186;28;20069;-58
2023/02/21 09:06:22;;;;;;;52.00;21.40;;;7.50;99.90;;;;;;5013214;28;20057;-58
2023/02/21 09:08:48;;;;;;;53.77;21.63;;;7.50;99.90;;;;;;5013161;28;20491;-58
2023/02/21 09:11:14;;;;;;;51.80;22.77;;;7.60;99.90;;;;;;5013463;28;20026;-57
2023/02/21 09:13:40;;;;;;;53.20;22.70;;;7.50;99.90;;;;;;5012783;28;20104;-57
2023/02/21 09:16:06;;;;;;;54.63;22.80;;;7.60;99.90;;;;;;5013310;28;20544;-57
2023/02/21 09:18:32;;;;;;;54.70;22.07;;;7.60;99.90;;;;;;5012773;28;20034;-58
2023/02/21 09:20:58;;;;;;;50.70;21.67;;;7.60;99.90;;;;;;5013166;28;20120;-58
2023/02/21 09:23:26;;;;;;;46.10;21.23;;;7.60;99.90;;;;;;5012937;28;20128;-58
2023/02/21 09:25:52;;;;;;;49.00;21.57;;;7.60;99.90;;;;;;5013055;28;20044;-58
2023/02/21 09:28:19;;;;;;;48.10;20.93;;;7.60;99.90;;;;;;5012960;28;20037;-58
2023/02/21 09:30:45;;;;;;;53.23;22.30;;;7.70;99.90;;;;;;5012862;28;20030;-57
2023/02/21 09:33:12;;;;;;;56.13;22.70;;;7.60;99.90;;;;;;5012831;28;20113;-58
2023/02/21 09:35:37;;;;;;;50.93;21.80;;;7.60;99.90;;;;;;5012619;28;20026;-57
2023/02/21 09:38:05;;;;;;;38.80;17.87;;;7.60;99.90;;;;;;5012721;28;20026;-57
2023/02/21 09:40:51;;;;;;;31.93;13.93;;;7.60;99.90;;;;;;5012751;28;20044;-57
2023/02/21 09:43:33;;;;;;;34.23;15.70;;;7.70;99.90;;;;;;5012761;28;20172;-58
2023/02/21 09:46:22;;;;;;;36.37;17.17;;;7.70;99.90;;;;;;5012635;28;20034;-57
2023/02/21 09:48:48;;;;;;;41.92;17.15;;;7.80;99.90;;;;;;5012496;28;20104;-59
2023/02/21 09:51:15;;;;;;;52.00;21.70;;;7.80;99.90;;;;;;5012631;28;20483;-58
2023/02/21 09:53:43;;;;;;;49.53;21.87;;;7.80;99.90;;;;;;5012300;28;20034;-58
2023/02/21 09:56:27;;;;;;;44.90;20.93;;;7.80;99.90;;;;;;5012568;28;20022;-57
2023/02/21 09:58:54;;;;;;;45.17;19.30;;;7.90;99.90;;;;;;5012425;28;20026;-57
2023/02/21 10:01:28;;;;;;;50.73;21.83;;;8.00;99.90;;;;;;5012385;28;20109;-58
2023/02/21 10:04:22;;;;;;;46.10;19.87;;;8.00;99.90;;;;;;5010816;28;20356;-58
2023/02/21 10:07:00;;;;;;;39.73;18.97;;;8.10;99.90;;;;;;5012546;28;20034;-58
2023/02/21 10:09:41;;;;;;;33.15;15.73;;;8.20;99.90;;;;;;5012282;28;20087;-59
2023/02/21 10:14:57;;;;;;;35.23;15.10;;;8.20;99.90;;;;;;5067706;28;20365;-59
2023/02/21 10:17:33;;;;;;;38.70;17.67;;;8.20;99.90;;;;;;5071647;28;20079;-59
2023/02/21 10:20:11;;;;;;;39.20;19.07;;;8.10;99.90;;;;;;5072084;28;20119;-60
2023/02/21 10:22:38;;;;;;;41.90;18.93;;;8.10;99.90;;;;;;5071798;28;20028;-57
2023/02/21 10:25:24;;;;;;;43.30;18.80;;;8.20;99.90;;;;;;5070994;28;20064;-60
2023/02/21 10:27:52;;;;;;;43.37;18.00;;;8.20;99.90;;;;;;5071530;28;20030;-60
2023/02/21 10:30:36;;;;;;;44.57;18.80;;;8.30;99.90;;;;;;5071466;28;20032;-60
2023/02/21 10:33:05;;;;;;;44.33;18.97;;;8.20;99.90;;;;;;5071581;28;20035;-60
2023/02/21 10:35:35;;;;;;;41.65;19.73;;;8.20;99.90;;;;;;5071475;28;20078;-59
2023/02/21 10:38:06;;;;;;;41.63;18.30;;;8.30;99.90;;;;;;5071356;28;20319;-60
2023/02/21 10:40:42;;;;;;;42.30;19.03;;;8.30;99.90;;;;;;5071530;28;20424;-60
2023/02/21 10:43:24;;;;;;;41.33;19.03;;;8.30;99.90;;;;;;5071360;28;20033;-60
2023/02/21 10:46:12;;;;;;;36.07;16.73;;;8.30;99.90;;;;;;5071544;28;20451;-60
2023/02/21 10:48:40;;;;;;;30.83;14.97;;;8.30;99.90;;;;;;5071183;28;20024;-60
2023/02/21 10:51:10;;;;;;;38.73;17.37;;;8.30;99.90;;;;;;5071211;28;20037;-59
2023/02/21 10:53:41;;;;;;;38.73;18.83;;;8.30;99.90;;;;;;5070750;28;20477;-59
2023/02/21 10:56:13;;;;;;;35.97;17.30;;;8.40;99.90;;;;;;5071129;28;20036;-58
2023/02/21 10:58:54;;;;;;;36.97;18.10;;;8.40;99.90;;;;;;5070859;28;20035;-59
2023/02/21 11:01:28;;;;;;;38.60;18.27;;;8.40;99.90;;;;;;5071018;28;20035;-59
2023/02/21 11:04:06;;;;;;;39.03;17.57;;;8.40;99.90;;;;;;5070874;28;20063;-60
2023/02/21 11:06:38;;;;;;;32.80;17.17;;;8.40;99.90;;;;;;5070770;28;20031;-59
2023/02/21 11:09:32;;;;;;;34.67;17.30;;;8.50;99.90;;;;;;5070823;28;20047;-60
2023/02/21 11:12:06;;;;;;;35.47;16.87;;;8.50;99.90;;;;;;5061400;28;20052;-60
2023/02/21 11:14:33;;;;;;;35.90;16.70;;;8.50;99.90;;;;;;5052636;28;20516;-59
2023/02/21 11:17:16;;;;;;;33.37;16.60;;;8.50;99.90;;;;;;5070574;28;20090;-60
2023/02/21 11:20:16;;;;;;;35.33;17.87;;;8.50;99.90;;;;;;5070726;28;20044;-59
2023/02/21 11:22:44;;;;;;;38.33;18.20;;;8.50;99.90;;;;;;5070766;28;20401;-60
2023/02/21 11:25:36;;;;;;;32.10;16.90;;;8.50;99.90;;;;;;5070708;28;20059;-59
2023/02/21 11:28:14;;;;;;;31.93;16.80;;;8.60;99.90;;;;;;5070604;28;20041;-58
2023/02/21 11:31:01;;;;;;;30.43;16.47;;;8.60;99.90;;;;;;5070511;28;20370;-60
2023/02/21 11:33:28;;;;;;;29.73;15.03;;;8.60;99.90;;;;;;5070308;28;20029;-60
2023/02/21 11:36:16;;;;;;;32.83;16.53;;;8.60;99.90;;;;;;5069705;28;20028;-59
2023/02/21 11:38:58;;;;;;;32.27;16.03;;;8.60;99.90;;;;;;5070272;28;20033;-59
2023/02/21 11:41:34;;;;;;;31.93;16.00;;;8.60;99.90;;;;;;5070674;28;20028;-60
2023/02/21 11:44:00;;;;;;;27.80;14.20;;;8.60;99.90;;;;;;5052334;28;20560;-60
2023/02/21 11:46:49;;;;;;;31.47;15.27;;;8.60;99.90;;;;;;5070363;28;20115;-60
2023/02/21 11:49:31;;;;;;;30.83;16.42;;;8.60;99.90;;;;;;5070301;28;20033;-59
2023/02/21 11:52:07;;;;;;;33.43;16.10;;;8.60;99.90;;;;;;5070454;28;20036;-60
2023/02/21 11:54:33;;;;;;;30.60;15.33;;;8.70;99.90;;;;;;5070188;28;20036;-59
2023/02/21 11:57:05;;;;;;;28.97;15.30;;;8.70;99.90;;;;;;5070212;28;20128;-59
2023/02/21 12:00:03;;;;;;;28.57;14.63;;;8.70;99.90;;;;;;5070103;28;20120;-59
2023/02/21 12:02:41;;;;;;;30.07;15.03;;;8.70;99.90;;;;;;5070303;28;20032;-59
2023/02/21 12:05:15;;;;;;;26.00;14.37;;;8.70;99.90;;;;;;5070124;28;20124;-60
2023/02/21 12:08:04;;;;;;;29.73;15.97;;;8.80;99.90;;;;;;5070094;28;20029;-59
2023/02/21 12:10:44;;;;;;;27.50;14.87;;;8.80;99.90;;;;;;5070184;28;20070;-59
2023/02/21 12:13:15;;;;;;;32.23;19.13;;;8.80;99.90;;;;;;5070034;28;20052;-60
2023/02/21 12:16:15;;;;;;;29.00;18.77;;;8.80;99.90;;;;;;5070050;28;20409;-60
2023/02/21 12:19:15;;;;;;;25.37;15.00;;;8.90;99.90;;;;;;5051923;28;20028;-59
2023/02/21 12:22:01;;;;;;;27.30;15.53;;;8.90;99.90;;;;;;5070087;28;20114;-59
2023/02/21 12:24:54;;;;;;;29.97;15.50;;;8.90;99.90;;;;;;5069859;28;20024;-59
2023/02/21 12:27:54;;;;;;;32.03;15.73;;;8.90;99.90;;;;;;5069831;28;20021;-59
2023/02/21 12:30:48;;;;;;;28.30;14.30;;;8.90;99.90;;;;;;5069908;28;20075;-58
2023/02/21 12:33:22;;;;;;;28.33;15.57;;;8.90;99.90;;;;;;5069984;28;20078;-59
2023/02/21 12:36:01;;;;;;;30.03;16.07;;;8.90;99.90;;;;;;5070044;28;20481;-58
2023/02/21 12:39:01;;;;;;;28.92;16.38;;;8.90;99.90;;;;;;5069815;28;20028;-58
2023/02/21 12:41:51;;;;;;;29.07;16.20;;;8.90;99.90;;;;;;5070370;28;20147;-59
2023/02/21 12:44:38;;;;;;;33.70;17.03;;;9.00;99.90;;;;;;5069722;28;20450;-58
2023/02/21 12:47:15;;;;;;;31.77;17.60;;;8.90;99.90;;;;;;5070337;28;20029;-58
2023/02/21 12:49:52;;;;;;;34.63;19.63;;;8.90;99.90;;;;;;5073501;28;20028;-58
2023/02/21 12:52:27;;;;;;;33.70;18.53;;;8.90;99.90;;;;;;5055655;28;20038;-58
2023/02/21 12:55:22;;;;;;;36.97;19.07;;;8.90;99.90;;;;;;5073458;28;20150;-59
2023/02/21 12:57:55;;;;;;;32.50;18.97;;;8.90;99.90;;;;;;5073320;28;20489;-59
2023/02/21 13:00:25;;;;;;;36.43;20.73;;;8.90;99.90;;;;;;5073449;28;20040;-60
2023/02/21 13:03:24;;;;;;;30.27;15.93;;;9.00;99.90;;;;;;5073449;28;20037;-59
2023/02/21 13:06:45;;;;;;;27.73;15.15;;;8.90;99.90;;;;;;5055837;28;20461;-59
2023/02/21 13:09:21;;;;;;;29.30;15.33;;;8.90;99.90;;;;;;4991591;28;20113;-59
2023/02/21 13:12:02;;;;;;;32.40;16.00;;;8.90;99.90;;;;;;5061927;28;20128;-58
2023/02/21 13:14:43;;;;;;;29.67;15.67;;;8.90;99.90;;;;;;5072857;28;20032;-58
2023/02/21 13:17:12;;;;;;;27.70;13.17;;;8.90;99.90;;;;;;5073170;28;20082;-60
2023/02/21 13:20:03;;;;;;;25.13;13.25;;;8.90;99.90;;;;;;5073396;28;20033;-59
2023/02/21 13:22:48;;;;;;;37.27;17.57;;;8.80;99.90;;;;;;5073203;28;20448;-60
2023/02/21 13:25:30;;;;;;;37.10;19.83;;;8.80;99.90;;;;;;5073042;28;20093;-59
2023/02/21 13:28:09;;;;;;;43.87;22.00;;;8.70;99.90;;;;;;5073144;28;20111;-59
2023/02/21 13:30:46;;;;;;;45.03;23.33;;;8.70;99.90;;;;;;5073131;28;20037;-59
2023/02/21 13:33:42;;;;;;;43.03;22.47;;;8.70;99.90;;;;;;5073116;28;20028;-58
2023/02/21 13:36:23;;;;;;;40.77;22.20;;;8.80;99.90;;;;;;5073256;28;20107;-59
2023/02/21 13:39:07;;;;;;;43.37;23.27;;;8.70;99.90;;;;;;5073190;28;20040;-58
2023/02/21 13:41:54;;;;;;;41.60;21.87;;;8.70;99.90;;;;;;5072921;28;20036;-60
2023/02/21 13:44:27;;;;;;;34.07;19.07;;;8.70;99.90;;;;;;5072617;28;20028;-60
2023/02/21 13:46:53;;;;;;;34.10;18.57;;;8.70;99.90;;;;;;5072762;28;20497;-59
2023/02/21 13:49:37;;;;;;;39.47;18.97;;;8.70;99.90;;;;;;5072666;28;20035;-59
2023/02/21 13:52:21;;;;;;;39.93;20.87;;;8.70;99.90;;;;;;5072800;28;20024;-58
2023/02/21 13:55:15;;;;;;;34.70;20.00;;;8.70;99.90;;;;;;5072883;28;20025;-58
2023/02/21 13:57:49;;;;;;;45.80;23.43;;;8.70;99.90;;;;;;5072447;28;20025;-59
2023/02/21 14:00:24;;;;;;;39.47;22.90;;;8.70;99.90;;;;;;5071627;28;20036;-59
2023/02/21 14:02:58;;;;;;;39.10;21.83;;;8.70;99.90;;;;;;5072309;28;20032;-58
2023/02/21 14:05:25;;;;;;;38.20;21.33;;;8.70;99.90;;;;;;5072104;28;20121;-58
2023/02/21 14:07:59;;;;;;;33.63;18.10;;;8.70;99.90;;;;;;5072410;28;20459;-59
2023/02/21 14:10:47;;;;;;;31.23;16.93;;;8.70;99.90;;;;;;5072295;28;20091;-58
2023/02/21 14:13:39;;;;;;;31.37;17.63;;;8.70;99.90;;;;;;5072373;28;20048;-59
2023/02/21 14:16:14;;;;;;;35.97;18.60;;;8.70;99.90;;;;;;5072272;28;20074;-58
2023/02/21 14:18:46;;;;;;;37.40;20.73;;;8.70;99.90;;;;;;5072073;28;20039;-58
2023/02/21 14:21:34;;;;;;;41.60;20.87;;;8.70;99.90;;;;;;5072149;28;20632;-59
2023/02/21 14:24:00;;;;;;;41.00;21.50;;;8.70;99.90;;;;;;5072216;28;20039;-59
2023/02/21 14:26:45;;;;;;;36.90;19.70;;;8.60;99.90;;;;;;5071809;28;20041;-58
2023/02/21 14:29:14;;;;;;;42.87;20.30;;;8.60;99.90;;;;;;5053915;28;20562;-59
2023/02/21 14:31:55;;;;;;;43.50;19.53;;;8.60;99.90;;;;;;5071869;28;20038;-58
2023/02/21 14:34:29;;;;;;;42.97;20.00;;;8.60;99.90;;;;;;5071506;28;20477;-58
2023/02/21 14:37:00;;;;;;;38.27;19.43;;;8.60;99.90;;;;;;5071803;28;20041;-59
2023/02/21 14:39:37;;;;;;;31.40;16.17;;;8.50;99.90;;;;;;5071685;28;20492;-58
2023/02/21 14:42:17;;;;;;;32.97;16.13;;;8.60;99.90;;;;;;5071487;28;20055;-59
2023/02/21 14:44:53;;;;;;;29.17;15.40;;;8.60;99.90;;;;;;5071628;28;20106;-58
2023/02/21 14:47:48;;;;;;;31.40;15.53;;;8.60;99.90;;;;;;5071308;28;20056;-58
2023/02/21 14:50:44;;;;;;;34.50;17.60;;;8.60;99.90;;;;;;5032675;28;20162;-59
2023/02/21 14:53:40;;;;;;;33.57;17.57;;;8.60;99.90;;;;;;5071471;28;20029;-58
2023/02/21 14:56:09;;;;;;;40.30;18.87;;;8.70;99.90;;;;;;5071376;28;20056;-59
2023/02/21 14:58:49;;;;;;;34.85;17.48;;;8.60;99.90;;;;;;5071014;28;20112;-58
2023/02/21 15:01:55;;;;;;;38.33;17.50;;;8.60;99.90;;;;;;5071282;28;20042;-58
2023/02/21 15:04:32;;;;;;;34.50;16.77;;;8.60;99.90;;;;;;5070965;28;20040;-59
2023/02/21 15:07:22;;;;;;;30.67;15.57;;;8.60;99.90;;;;;;5071323;28;20041;-59
2023/02/21 15:10:05;;;;;;;32.80;16.77;;;8.60;99.90;;;;;;5052873;28;20036;-59
2023/02/21 15:12:38;;;;;;;33.17;15.90;;;8.60;99.90;;;;;;5070814;28;20036;-58
2023/02/21 15:15:05;;;;;;;35.17;17.07;;;8.50;99.90;;;;;;5070813;28;20315;-58
2023/02/21 15:17:31;;;;;;;28.10;16.50;;;8.50;99.90;;;;;;5070559;28;20028;-59
2023/02/21 15:20:05;;;;;;;31.87;15.97;;;8.50;99.90;;;;;;5071054;28;20036;-59
2023/02/21 15:22:31;;;;;;;29.77;14.80;;;8.50;99.90;;;;;;5070963;28;20115;-58
2023/02/21 15:24:58;;;;;;;33.17;16.33;;;8.40;99.90;;;;;;5070652;28;20429;-59